createdAt,value
2019-01-08T00:01:04.861Z,3.57
2019-01-08T00:03:33.330Z,4.20
2019-01-08T00:06:01.745Z,3.30
2019-01-08T00:08:30.213Z,4.60
2019-01-08T00:10:58.641Z,4.23
2019-01-08T00:13:27.033Z,3.53
2019-01-08T00:15:57.290Z,2.87
2019-01-08T00:18:25.687Z,4.00
2019-01-08T00:20:54.187Z,3.17
2019-01-08T00:23:22.742Z,4.90
2019-01-08T00:25:52.091Z,3.80
2019-01-08T00:28:20.956Z,3.90
2019-01-08T00:30:49.587Z,3.27
2019-01-08T00:33:18.058Z,3.83
2019-01-08T00:35:46.529Z,3.03
2019-01-08T00:38:14.924Z,4.40
2019-01-08T00:40:43.283Z,4.03
2019-01-08T00:43:11.870Z,3.53
2019-01-08T00:45:40.272Z,4.27
2019-01-08T00:48:08.684Z,3.90
2019-01-08T00:50:38.151Z,3.93
2019-01-08T00:53:06.509Z,3.20
2019-01-08T00:55:34.969Z,5.20
2019-01-08T00:58:03.411Z,4.37
2019-01-08T01:00:31.770Z,4.13
2019-01-08T01:03:00.132Z,4.03
2019-01-08T01:05:28.518Z,3.00
2019-01-08T01:07:57.347Z,5.13
2019-01-08T01:10:26.130Z,4.10
2019-01-08T01:12:54.598Z,4.27
2019-01-08T01:15:22.944Z,3.37
2019-01-08T01:17:51.296Z,4.17
2019-01-08T01:20:19.778Z,3.60
2019-01-08T01:22:48.132Z,4.77
2019-01-08T01:25:16.508Z,3.53
2019-01-08T01:27:45.281Z,3.33
2019-01-08T01:30:13.719Z,4.07
2019-01-08T01:32:42.068Z,3.67
2019-01-08T01:35:13.719Z,3.60
2019-01-08T01:37:42.178Z,3.50
2019-01-08T01:40:10.736Z,4.50
2019-01-08T01:42:39.204Z,3.87
2019-01-08T01:45:07.826Z,4.03
2019-01-08T01:47:36.314Z,5.03
2019-01-08T01:50:05.074Z,3.33
2019-01-08T01:52:35.565Z,4.00
2019-01-08T01:55:06.417Z,4.50
2019-01-08T01:57:34.949Z,4.00
2019-01-08T02:00:03.551Z,5.53
2019-01-08T02:02:32.011Z,5.30
2019-01-08T02:05:00.409Z,4.07
2019-01-08T02:07:28.831Z,3.97
2019-01-08T02:09:57.204Z,4.13
2019-01-08T02:12:25.689Z,3.80
2019-01-08T02:14:54.069Z,4.67
2019-01-08T02:17:22.569Z,5.07
2019-01-08T02:19:50.975Z,3.97
2019-01-08T02:22:19.509Z,4.57
2019-01-08T02:24:47.953Z,4.23
2019-01-08T02:27:16.304Z,4.47
2019-01-08T02:29:44.684Z,4.07
2019-01-08T02:32:13.064Z,4.30
2019-01-08T02:34:41.437Z,5.00
2019-01-08T02:37:09.946Z,3.70
2019-01-08T02:39:38.331Z,5.07
2019-01-08T02:42:06.811Z,5.20
2019-01-08T02:44:35.441Z,4.50
2019-01-08T02:47:03.887Z,3.50
2019-01-08T02:49:32.690Z,4.47
2019-01-08T02:52:01.142Z,4.77
2019-01-08T02:54:29.705Z,4.17
2019-01-08T02:56:58.598Z,3.80
2019-01-08T02:59:27.145Z,4.13
2019-01-08T03:01:55.624Z,4.53
2019-01-08T03:04:24.092Z,3.60
2019-01-08T03:06:52.557Z,4.53
2019-01-08T03:09:20.889Z,3.73
2019-01-08T03:11:49.554Z,4.20
2019-01-08T03:14:18.085Z,3.50
2019-01-08T03:16:46.420Z,4.43
2019-01-08T03:19:14.843Z,5.13
2019-01-08T03:21:43.272Z,5.03
2019-01-08T03:24:11.705Z,4.27
2019-01-08T03:26:40.376Z,4.40
2019-01-08T03:29:08.742Z,5.10
2019-01-08T03:31:37.161Z,5.37
2019-01-08T03:34:05.633Z,5.37
2019-01-08T03:36:34.093Z,3.57
2019-01-08T03:39:03.274Z,5.13
2019-01-08T03:41:31.709Z,5.23
2019-01-08T03:44:01.785Z,4.37
2019-01-08T03:46:30.262Z,4.43
2019-01-08T03:49:08.178Z,4.07
2019-01-08T03:51:36.708Z,3.97
2019-01-08T03:54:05.225Z,6.17
2019-01-08T03:56:33.614Z,4.80
2019-01-08T03:59:02.089Z,4.23
2019-01-08T04:01:30.625Z,4.83
2019-01-08T04:03:59.018Z,4.90
2019-01-08T04:06:27.453Z,4.30
2019-01-08T04:08:55.803Z,5.07
2019-01-08T04:11:25.078Z,4.90
2019-01-08T04:13:53.555Z,5.00
2019-01-08T04:16:21.951Z,4.27
2019-01-08T04:18:50.382Z,4.30
2019-01-08T04:21:18.732Z,4.73
2019-01-08T04:23:47.225Z,3.30
2019-01-08T04:26:15.749Z,4.87
2019-01-08T04:28:44.221Z,4.23
2019-01-08T04:31:12.545Z,4.10
2019-01-08T04:33:43.719Z,3.77
2019-01-08T04:36:12.144Z,4.23
2019-01-08T04:38:40.613Z,5.10
2019-01-08T04:41:09.144Z,6.17
2019-01-08T04:43:53.297Z,4.47
2019-01-08T04:46:12.977Z,4.63
2019-01-08T04:48:41.350Z,4.90
2019-01-08T04:51:09.849Z,4.00
2019-01-08T04:53:40.505Z,3.57
2019-01-08T04:56:08.966Z,4.37
2019-01-08T04:58:37.374Z,4.50
2019-01-08T05:01:05.874Z,4.50
2019-01-08T05:03:34.595Z,4.67
2019-01-08T05:06:03.285Z,4.70
2019-01-08T05:08:31.737Z,4.43
2019-01-08T05:11:00.099Z,5.07
2019-01-08T05:13:28.703Z,4.97
2019-01-08T05:15:57.717Z,5.00
2019-01-08T05:18:26.126Z,5.13
2019-01-08T05:20:55.253Z,3.67
2019-01-08T05:23:23.622Z,4.73
2019-01-08T05:25:52.351Z,3.70
2019-01-08T05:28:20.910Z,3.83
2019-01-08T05:30:49.348Z,3.30
2019-01-08T05:33:17.719Z,5.03
2019-01-08T05:35:46.292Z,3.73
2019-01-08T05:38:14.821Z,4.23
2019-01-08T05:40:43.286Z,4.67
2019-01-08T05:43:11.681Z,4.70
2019-01-08T05:45:40.028Z,3.90
2019-01-08T05:48:08.470Z,3.33
2019-01-08T05:50:36.874Z,3.97
2019-01-08T05:53:05.376Z,5.23
2019-01-08T05:55:33.790Z,4.17
2019-01-08T05:58:02.172Z,5.77
2019-01-08T06:00:30.568Z,4.10
2019-01-08T06:02:58.925Z,4.43
2019-01-08T06:05:27.347Z,4.93
2019-01-08T06:07:56.013Z,5.37
2019-01-08T06:10:24.537Z,3.27
2019-01-08T06:12:53.164Z,2.77
2019-01-08T06:15:22.399Z,2.70
2019-01-08T06:17:50.860Z,2.50
2019-01-08T06:20:19.216Z,2.70
2019-01-08T06:22:47.696Z,2.60
2019-01-08T06:25:16.141Z,3.00
2019-01-08T06:27:44.656Z,4.37
2019-01-08T06:30:13.153Z,2.90
2019-01-08T06:32:41.767Z,3.17
2019-01-08T06:35:10.218Z,3.90
2019-01-08T06:37:38.686Z,3.40
2019-01-08T06:40:10.206Z,4.23
2019-01-08T06:42:38.829Z,4.27
2019-01-08T06:45:07.705Z,3.97
2019-01-08T06:47:36.402Z,4.57
2019-01-08T06:50:05.211Z,3.87
2019-01-08T06:52:33.950Z,4.80
2019-01-08T06:55:05.912Z,3.63
2019-01-08T06:57:37.000Z,4.17
2019-01-08T07:00:05.543Z,5.30
2019-01-08T07:02:34.093Z,4.13
2019-01-08T07:05:02.472Z,4.27
2019-01-08T07:07:31.428Z,3.70
2019-01-08T07:15:16.253Z,4.27
2019-01-08T07:18:26.512Z,4.27
2019-01-08T07:20:55.481Z,4.30
2019-01-08T07:23:24.375Z,2.60
2019-01-08T07:25:53.405Z,2.53
2019-01-08T07:28:22.531Z,2.77
2019-01-08T07:30:51.410Z,2.77
2019-01-08T07:33:22.859Z,3.23
2019-01-08T07:35:51.776Z,3.43
2019-01-08T07:38:20.664Z,3.53
2019-01-08T07:40:50.263Z,3.53
2019-01-08T07:43:19.208Z,4.33
2019-01-08T07:45:47.654Z,4.30
2019-01-08T07:48:16.108Z,4.07
2019-01-08T07:50:44.719Z,4.20
2019-01-08T07:53:13.162Z,3.73
2019-01-08T07:55:41.674Z,3.50
2019-01-08T07:58:13.575Z,4.13
2019-01-08T08:00:49.751Z,4.13
2019-01-08T08:03:12.058Z,4.77
2019-01-08T08:05:40.564Z,4.67
2019-01-08T08:08:09.102Z,3.63
2019-01-08T08:10:37.654Z,3.70
2019-01-08T08:13:06.087Z,4.10
2019-01-08T08:15:36.649Z,4.03
2019-01-08T08:18:05.007Z,3.80
2019-01-08T08:20:33.548Z,3.80
2019-01-08T08:23:03.816Z,4.37
2019-01-08T08:25:32.421Z,3.97
2019-01-08T08:28:01.137Z,4.73
2019-01-08T08:30:29.879Z,5.20
2019-01-08T08:32:58.480Z,4.40
2019-01-08T08:35:27.046Z,5.23
2019-01-08T08:37:55.693Z,4.60
2019-01-08T08:40:26.743Z,5.60
2019-01-08T08:42:55.454Z,4.87
2019-01-08T08:45:24.456Z,3.90
2019-01-08T08:47:53.118Z,4.03
2019-01-08T08:50:21.955Z,4.50
2019-01-08T08:52:50.509Z,4.20
2019-01-08T08:55:20.107Z,3.77
2019-01-08T08:57:48.756Z,3.50
2019-01-08T09:00:20.249Z,4.37
2019-01-08T09:02:48.773Z,4.00
2019-01-08T09:05:17.645Z,3.77
2019-01-08T09:07:46.285Z,4.27
2019-01-08T09:10:14.807Z,4.87
2019-01-08T09:12:43.953Z,4.67
2019-01-08T09:15:12.527Z,4.40
2019-01-08T09:17:41.170Z,5.40
2019-01-08T09:20:10.111Z,4.07
2019-01-08T09:22:39.441Z,4.50
2019-01-08T09:25:08.713Z,5.70
2019-01-08T09:27:37.352Z,6.07
2019-01-08T09:30:06.707Z,4.90
2019-01-08T09:32:37.914Z,4.83
2019-01-08T09:35:08.605Z,5.10
2019-01-08T09:37:37.276Z,5.37
2019-01-08T09:40:06.646Z,5.00
2019-01-08T09:42:35.459Z,5.20
2019-01-08T09:45:04.920Z,4.87
2019-01-08T09:47:33.573Z,4.77
2019-01-08T09:50:02.236Z,5.10
2019-01-08T09:52:31.015Z,5.33
2019-01-08T09:54:59.611Z,4.37
2019-01-08T09:57:28.165Z,4.93
2019-01-08T09:59:56.576Z,6.33
2019-01-08T10:02:25.416Z,5.37
2019-01-08T10:04:59.234Z,5.17
2019-01-08T10:07:27.491Z,5.67
2019-01-08T10:09:56.288Z,5.43
2019-01-08T10:12:26.649Z,5.53
2019-01-08T10:14:55.217Z,5.63
2019-01-08T10:17:23.889Z,5.57
2019-01-08T10:19:52.538Z,5.00
2019-01-08T10:22:21.329Z,5.53
2019-01-08T10:24:50.205Z,4.43
2019-01-08T10:27:21.996Z,5.80
2019-01-08T10:29:52.794Z,7.13
2019-01-08T10:32:24.884Z,5.33
2019-01-08T10:35:28.280Z,6.20
2019-01-08T10:37:35.282Z,4.67
2019-01-08T10:40:04.526Z,5.10
2019-01-08T10:42:34.254Z,5.67
2019-01-08T10:45:02.989Z,4.90
2019-01-08T10:47:31.484Z,7.13
2019-01-08T10:50:00.316Z,5.43
2019-01-08T10:52:28.988Z,6.03
2019-01-08T10:54:57.572Z,4.57
2019-01-08T10:57:26.361Z,5.37
2019-01-08T10:59:55.154Z,6.97
2019-01-08T11:02:23.806Z,6.07
2019-01-08T11:04:52.499Z,7.20
2019-01-08T11:07:23.137Z,5.33
2019-01-08T11:09:51.817Z,7.23
2019-01-08T11:12:20.614Z,6.23
2019-01-08T11:14:50.498Z,7.03
2019-01-08T11:17:18.926Z,6.20
2019-01-08T11:19:47.544Z,6.60
2019-01-08T11:22:15.944Z,6.80
2019-01-08T11:24:47.262Z,6.83
2019-01-08T11:27:15.818Z,5.70
2019-01-08T11:29:46.453Z,5.17
2019-01-08T11:32:14.956Z,5.80
2019-01-08T11:34:45.488Z,5.93
2019-01-08T11:37:14.379Z,6.70
2019-01-08T11:39:43.335Z,5.70
2019-01-08T11:42:12.090Z,4.77
2019-01-08T11:44:40.894Z,6.43
2019-01-08T11:47:09.699Z,7.33
2019-01-08T11:49:38.581Z,5.60
2019-01-08T11:52:29.768Z,5.03
2019-01-08T11:55:03.722Z,5.13
2019-01-08T11:57:32.547Z,4.43
2019-01-08T12:00:01.329Z,5.10
2019-01-08T12:02:30.001Z,5.10
2019-01-08T12:04:58.693Z,5.73
2019-01-08T12:07:31.369Z,4.50
2019-01-08T12:10:02.892Z,4.93
2019-01-08T12:12:31.899Z,6.40
2019-01-08T12:15:01.288Z,6.23
2019-01-08T12:17:30.045Z,5.87
2019-01-08T12:19:59.008Z,4.73
2019-01-08T12:22:27.994Z,6.77
2019-01-08T12:24:56.647Z,5.77
2019-01-08T12:27:27.445Z,7.20
2019-01-08T12:29:55.914Z,6.23
2019-01-08T12:32:28.338Z,6.03
2019-01-08T12:34:59.442Z,5.77
2019-01-08T12:37:28.289Z,5.03
2019-01-08T12:39:59.566Z,4.40
2019-01-08T12:42:29.750Z,4.50
2019-01-08T12:44:58.270Z,4.47
2019-01-08T12:47:37.454Z,4.97
2019-01-08T12:50:06.736Z,6.63
2019-01-08T12:52:37.476Z,6.27
2019-01-08T12:55:07.289Z,4.83
2019-01-08T12:57:36.185Z,4.97
2019-01-08T13:00:05.383Z,5.07
2019-01-08T13:02:34.399Z,4.60
2019-01-08T13:05:03.295Z,6.43
2019-01-08T13:07:32.159Z,5.90
2019-01-08T13:10:00.947Z,5.50
2019-01-08T13:12:29.580Z,4.50
2019-01-08T13:14:58.530Z,4.67
2019-01-08T13:17:27.068Z,5.80
2019-01-08T13:19:55.693Z,4.87
2019-01-08T13:22:24.153Z,4.93
2019-01-08T13:24:52.758Z,5.40
2019-01-08T13:27:21.513Z,5.13
2019-01-08T13:29:50.245Z,5.67
2019-01-08T13:32:23.144Z,5.30
2019-01-08T13:34:48.812Z,5.03
2019-01-08T13:37:17.562Z,6.03
2019-01-08T13:39:46.450Z,5.53
2019-01-08T13:42:14.958Z,4.50
2019-01-08T13:44:44.681Z,4.80
2019-01-08T13:47:13.169Z,4.60
2019-01-08T13:49:41.729Z,4.60
2019-01-08T13:52:10.336Z,6.50
2019-01-08T13:54:39.028Z,4.80
2019-01-08T13:57:10.093Z,5.80
2019-01-08T13:59:38.596Z,6.57
2019-01-08T14:02:07.364Z,5.97
2019-01-08T14:04:35.988Z,5.33
2019-01-08T14:07:04.583Z,6.40
2019-01-08T14:09:33.372Z,5.47
2019-01-08T14:12:02.020Z,4.90
2019-01-08T14:14:30.836Z,5.17
2019-01-08T14:16:59.566Z,4.83
2019-01-08T14:19:28.348Z,5.50
2019-01-08T14:21:57.164Z,5.27
2019-01-08T14:24:25.972Z,5.97
2019-01-08T14:26:55.791Z,5.73
2019-01-08T14:29:27.647Z,5.60
2019-01-08T14:31:58.736Z,5.83
2019-01-08T14:34:27.424Z,5.57
2019-01-08T14:36:56.304Z,4.20
2019-01-08T14:39:25.217Z,5.03
2019-01-08T14:41:54.145Z,5.57
2019-01-08T14:44:22.978Z,4.63
2019-01-08T14:46:52.915Z,5.57
2019-01-08T14:49:21.496Z,4.80
2019-01-08T14:51:49.965Z,4.50
2019-01-08T14:54:18.444Z,4.20
2019-01-08T14:56:49.969Z,4.13
2019-01-08T14:59:18.561Z,4.50
2019-01-08T15:01:47.057Z,3.87
2019-01-08T15:04:15.583Z,4.63
2019-01-08T15:06:44.109Z,4.23
2019-01-08T15:09:13.844Z,4.77
2019-01-08T15:11:42.420Z,3.80
2019-01-08T15:14:10.843Z,5.47
2019-01-08T15:17:17.386Z,3.77
2019-01-08T15:19:48.511Z,3.60
2019-01-08T15:22:17.280Z,4.73
2019-01-08T15:24:45.774Z,4.00
2019-01-08T15:27:14.335Z,3.90
2019-01-08T15:29:42.928Z,4.10
2019-01-08T15:32:11.467Z,4.07
2019-01-08T15:34:40.090Z,5.53
2019-01-08T15:37:09.053Z,4.23
2019-01-08T15:39:37.961Z,4.50
2019-01-08T15:42:06.823Z,4.37
2019-01-08T15:44:38.792Z,4.70
2019-01-08T15:47:09.455Z,5.10
2019-01-08T15:49:38.184Z,5.43
2019-01-08T15:52:06.927Z,5.93
2019-01-08T15:54:35.918Z,5.60
2019-01-08T15:57:05.018Z,4.43
2019-01-08T15:59:44.673Z,6.13
2019-01-08T16:02:13.738Z,5.17
2019-01-08T16:04:42.569Z,4.93
2019-01-08T16:07:11.678Z,6.40
2019-01-08T16:09:40.554Z,4.03
2019-01-08T16:12:09.595Z,4.37
2019-01-08T16:14:38.606Z,5.17
2019-01-08T16:17:07.343Z,4.83
2019-01-08T16:19:36.140Z,4.83
2019-01-08T16:22:04.925Z,5.97
2019-01-08T16:24:39.081Z,4.37
2019-01-08T16:27:07.723Z,4.73
2019-01-08T16:29:36.473Z,5.33
2019-01-08T16:32:23.666Z,5.03
2019-01-08T16:34:48.139Z,6.97
2019-01-08T16:37:16.875Z,4.40
2019-01-08T16:39:45.735Z,3.53
2019-01-08T16:42:36.828Z,4.30
2019-01-08T16:45:05.479Z,3.63
2019-01-08T16:47:34.249Z,3.53
2019-01-08T16:50:02.920Z,3.30
2019-01-08T16:52:33.172Z,3.97
2019-01-08T16:55:03.796Z,3.83
2019-01-08T16:57:35.531Z,4.63
2019-01-08T17:00:07.866Z,6.23
2019-01-08T17:02:38.426Z,3.67
2019-01-08T17:05:08.798Z,5.03
2019-01-08T17:07:37.672Z,4.80
2019-01-08T17:10:09.309Z,4.40
2019-01-08T17:12:45.781Z,3.90
2019-01-08T17:15:26.867Z,2.80
2019-01-08T17:18:08.156Z,3.30
2019-01-08T17:20:38.951Z,3.63
2019-01-08T17:23:07.564Z,3.00
2019-01-08T17:25:37.893Z,3.47
2019-01-08T17:28:06.826Z,3.67
2019-01-08T17:30:35.324Z,3.13
2019-01-08T17:33:06.061Z,4.33
2019-01-08T17:35:34.853Z,3.57
2019-01-08T17:38:03.572Z,4.27
2019-01-08T17:40:32.433Z,4.10
2019-01-08T17:43:07.572Z,4.67
2019-01-08T17:45:37.183Z,4.53
2019-01-08T17:48:29.298Z,4.33
2019-01-08T17:51:16.706Z,4.90
2019-01-08T17:56:59.122Z,4.13
2019-01-08T17:59:29.578Z,4.13
2019-01-08T18:02:20.461Z,5.10
2019-01-08T18:04:49.154Z,4.43
2019-01-08T18:07:19.081Z,4.67
2019-01-08T18:10:15.343Z,4.97
2019-01-08T18:12:44.233Z,4.60
2019-01-08T18:15:15.528Z,5.10
2019-01-08T18:17:45.724Z,3.93
2019-01-08T18:20:18.380Z,3.93
2019-01-08T18:22:57.496Z,4.43
2019-01-08T18:25:43.298Z,4.60
2019-01-08T18:28:01.875Z,4.63
2019-01-08T18:30:32.533Z,3.83
2019-01-08T18:33:01.184Z,3.93
2019-01-08T18:35:30.306Z,3.30
2019-01-08T18:38:00.089Z,3.73
2019-01-08T18:40:28.849Z,3.70
2019-01-08T18:43:00.208Z,4.20
2019-01-08T18:45:30.301Z,4.20
2019-01-08T18:48:08.125Z,3.70
2019-01-08T18:50:37.130Z,4.13
2019-01-08T18:53:07.334Z,4.20
2019-01-08T18:55:40.842Z,3.50
2019-01-08T18:58:09.802Z,5.73
2019-01-08T19:00:38.703Z,4.70
2019-01-08T19:03:11.138Z,4.97
2019-01-08T19:05:43.654Z,4.23
2019-01-08T19:08:42.064Z,2.80
2019-01-08T19:11:08.342Z,2.40
2019-01-08T19:13:40.088Z,2.40
2019-01-08T19:16:12.169Z,3.30
2019-01-08T19:18:44.228Z,3.47
2019-01-08T19:21:16.275Z,3.27
2019-01-08T19:27:56.257Z,3.13
2019-01-08T19:30:29.409Z,3.13
2019-01-08T19:33:17.437Z,3.87
2019-01-08T19:42:04.650Z,4.97
2019-01-08T19:44:35.135Z,4.27
2019-01-08T19:47:11.864Z,5.40
2019-01-08T19:50:16.290Z,4.63
2019-01-08T19:59:07.017Z,4.60
2019-01-08T20:02:21.357Z,5.00
2019-01-08T20:05:17.429Z,3.53
2019-01-08T20:10:23.563Z,4.57
2019-01-08T20:14:35.417Z,5.07
2019-01-08T21:08:06.273Z,4.10
2019-01-08T21:10:50.433Z,4.17
2019-01-08T21:13:21.443Z,4.87
2019-01-08T21:16:01.272Z,4.13
2019-01-08T21:18:49.377Z,3.80
2019-01-08T21:21:37.193Z,3.27
2019-01-08T21:27:40.601Z,3.30
2019-01-08T21:30:07.694Z,3.63
2019-01-08T21:55:43.963Z,3.63
2019-01-08T21:58:34.420Z,4.90
2019-01-08T22:01:10.508Z,3.60
2019-01-08T22:03:48.493Z,4.03
2019-01-08T22:06:27.982Z,4.17
2019-01-08T22:09:23.271Z,4.80
2019-01-08T22:20:05.983Z,3.73
2019-01-08T22:22:38.035Z,5.07
2019-01-08T22:25:10.917Z,3.57
2019-01-08T22:27:53.838Z,4.67
2019-01-08T22:30:28.654Z,4.40
2019-01-08T22:33:03.947Z,4.53
2019-01-08T22:35:33.268Z,4.17
2019-01-08T22:38:04.509Z,5.40
2019-01-08T22:40:36.212Z,4.43
2019-01-08T22:43:13.726Z,4.60
2019-01-08T22:45:44.481Z,4.50
2019-01-08T22:48:13.632Z,3.57
2019-01-08T22:50:49.297Z,3.70
2019-01-08T22:53:21.401Z,3.10
2019-01-08T22:55:50.431Z,3.93
2019-01-08T22:58:20.617Z,3.73
2019-01-08T23:01:09.852Z,3.77
2019-01-08T23:03:38.878Z,2.97
2019-01-08T23:06:08.117Z,3.20
2019-01-08T23:08:40.860Z,3.60
2019-01-08T23:11:12.357Z,3.10
2019-01-08T23:13:41.611Z,3.00
2019-01-08T23:16:11.263Z,2.67
2019-01-08T23:18:41.559Z,3.13
2019-01-08T23:21:10.720Z,3.60
2019-01-08T23:23:39.881Z,3.70
2019-01-08T23:26:14.198Z,3.07
2019-01-08T23:28:43.524Z,3.10
2019-01-08T23:31:15.677Z,2.30
2019-01-08T23:33:44.677Z,1.90
2019-01-08T23:36:14.286Z,1.57
2019-01-08T23:38:45.815Z,1.17
2019-01-08T23:41:15.162Z,1.13
2019-01-08T23:43:44.381Z,1.50
2019-01-08T23:46:13.537Z,1.60
2019-01-08T23:48:42.408Z,1.77
2019-01-08T23:51:11.363Z,2.50
2019-01-08T23:53:40.484Z,2.40
2019-01-08T23:56:09.605Z,2.23
2019-01-08T23:58:40.502Z,3.57
